Time;durP1;ratioP1;P1;durP2;ratioP2;P2;SDS_P1;SDS_P2;PMS_P1;PMS_P2;Temp;Humidity;BMP_temperature;BMP_pressure;BME280_temperature;BME280_humidity;BME280_pressure;Samples;Min_cycle;Max_cycle;Signal;HPM_P1;HPM_P2
2024/01/28 00:01:17;;;;;;;15.60;4.40;;;;;;;5.78;80.26;102869.23;105035;1257;75770;-64
2024/01/28 00:04:04;;;;;;;20.50;5.50;;;;;;;5.74;80.19;102873.27;104959;1257;66294;-64
2024/01/28 00:06:30;;;;;;;21.00;4.50;;;;;;;5.73;80.12;102879.30;105042;1259;139680;-64
2024/01/28 00:08:57;;;;;;;15.20;3.80;;;;;;;5.73;80.19;102880.16;104926;1259;61332;-64
2024/01/28 00:11:24;;;;;;;12.70;4.00;;;;;;;5.71;80.08;102878.30;104861;1259;138761;-64
2024/01/28 00:13:51;;;;;;;17.40;4.00;;;;;;;5.69;79.95;102881.25;105004;1256;73889;-63
2024/01/28 00:16:18;;;;;;;10.10;3.30;;;;;;;5.68;79.94;102879.05;104868;1257;66876;-63
2024/01/28 00:18:45;;;;;;;12.60;3.40;;;;;;;5.66;79.86;102889.05;105102;1259;138556;-63
2024/01/28 00:21:12;;;;;;;16.30;3.30;;;;;;;5.66;79.79;102894.23;105085;1259;61366;-63
2024/01/28 00:23:39;;;;;;;14.40;3.60;;;;;;;5.65;79.80;102895.80;105095;1254;139220;-63
2024/01/28 00:26:07;;;;;;;14.40;3.60;;;;;;;5.65;79.80;102901.55;105095;1256;73846;-63
2024/01/28 00:28:33;;;;;;;11.10;3.40;;;;;;;5.65;79.71;102905.90;104996;1259;67570;-64
2024/01/28 00:31:00;;;;;;;14.40;3.80;;;;;;;5.62;79.63;102906.72;105022;1259;137927;-65
2024/01/28 00:33:27;;;;;;;15.60;4.20;;;;;;;5.62;79.70;102907.19;105096;1257;61346;-64
2024/01/28 00:35:54;;;;;;;16.00;3.70;;;;;;;5.63;79.75;102905.66;104932;1258;137620;-63
2024/01/28 00:38:20;;;;;;;13.10;3.30;;;;;;;5.64;79.71;102908.38;104919;1257;74741;-64
2024/01/28 00:40:47;;;;;;;15.60;3.80;;;;;;;5.63;79.60;102906.39;104806;1257;138539;-63
2024/01/28 00:43:13;;;;;;;15.80;4.20;;;;;;;5.63;79.75;102906.55;104979;1259;72190;-63
2024/01/28 00:45:41;;;;;;;12.80;3.80;;;;;;;5.63;79.64;102907.48;105007;1256;61369;-63
2024/01/28 00:48:07;;;;;;;11.30;3.40;;;;;;;5.63;79.67;102909.16;104829;1256;138947;-59
2024/01/28 00:50:34;;;;;;;13.50;3.50;;;;;;;5.65;79.74;102912.64;104837;1257;74660;-59
2024/01/28 00:53:01;;;;;;;13.30;3.20;;;;;;;5.67;79.70;102916.83;104884;1259;138960;-59
2024/01/28 00:55:28;;;;;;;12.70;3.10;;;;;;;5.69;79.65;102917.63;104911;1259;73189;-59
2024/01/28 00:57:55;;;;;;;9.70;3.20;;;;;;;5.70;79.57;102917.39;104870;1259;61919;-59
2024/01/28 01:00:22;;;;;;;13.50;3.40;;;;;;;5.72;79.57;102913.36;104975;1257;138458;-62
2024/01/28 01:02:48;;;;;;;10.70;2.80;;;;;;;5.74;79.61;102910.59;105182;1257;75580;-58
2024/01/28 01:05:15;;;;;;;13.90;3.50;;;;;;;5.76;79.51;102906.02;104807;1256;139816;-64
2024/01/28 01:07:43;;;;;;;10.50;3.00;;;;;;;5.79;79.55;102905.55;104969;1255;72725;-64
2024/01/28 01:10:10;;;;;;;9.70;3.30;;;;;;;5.80;79.55;102904.80;105126;1255;61288;-59
2024/01/28 01:12:37;;;;;;;14.10;3.70;;;;;;;5.80;79.45;102903.38;104788;1259;137431;-60
2024/01/28 01:15:04;;;;;;;16.20;3.40;;;;;;;5.81;79.44;102908.31;104844;1259;75081;-60
2024/01/28 01:17:31;;;;;;;11.70;3.60;;;;;;;5.79;79.40;102904.73;104690;1261;137692;-64
2024/01/28 01:19:58;;;;;;;13.60;3.70;;;;;;;5.79;79.38;102901.76;104908;1257;73638;-64
2024/01/28 01:22:24;;;;;;;15.20;3.70;;;;;;;5.79;79.37;102905.34;104797;1256;61322;-64
2024/01/28 01:24:51;;;;;;;14.70;4.30;;;;;;;5.77;79.22;102906.61;104981;1255;138621;-64
2024/01/28 01:27:17;;;;;;;17.20;3.80;;;;;;;5.76;79.30;102909.48;105049;1259;74024;-64
2024/01/28 01:29:44;;;;;;;12.60;3.70;;;;;;;5.75;79.33;102902.09;105089;1257;138535;-63
2024/01/28 01:32:11;;;;;;;11.90;3.40;;;;;;;5.76;79.23;102908.33;105004;1257;71630;-64
2024/01/28 01:34:38;;;;;;;10.80;3.30;;;;;;;5.77;79.20;102908.36;105019;1255;61369;-64
2024/01/28 01:37:05;;;;;;;18.20;5.50;;;;;;;5.78;79.19;102903.78;104943;1257;138230;-64
2024/01/28 01:39:32;;;;;;;15.60;5.30;;;;;;;5.80;79.14;102903.36;105078;1259;74715;-64
2024/01/28 01:41:58;;;;;;;17.20;5.20;;;;;;;5.81;79.12;102900.86;105036;1257;138709;-64
2024/01/28 01:44:26;;;;;;;14.90;4.40;;;;;;;5.83;79.11;102905.39;105109;1260;72879;-64
2024/01/28 01:46:52;;;;;;;15.70;3.90;;;;;;;5.84;79.07;102900.60;104699;1262;137687;-63
2024/01/28 01:49:19;;;;;;;15.20;4.00;;;;;;;5.83;78.94;102898.41;104920;1257;61307;-64
2024/01/28 01:51:46;;;;;;;12.10;3.30;;;;;;;5.80;78.93;102891.72;104963;1257;74584;-64
2024/01/28 01:54:13;;;;;;;12.80;3.40;;;;;;;5.79;78.87;102891.27;104990;1259;137577;-63
2024/01/28 01:56:39;;;;;;;10.20;3.20;;;;;;;5.80;78.90;102896.75;104939;1259;73286;-59
2024/01/28 01:59:06;;;;;;;12.30;3.60;;;;;;;5.80;78.91;102902.51;104756;1256;139043;-59
2024/01/28 02:01:34;;;;;;;10.70;3.20;;;;;;;5.80;78.85;102896.73;104957;1258;61243;-58
2024/01/28 02:04:01;;;;;;;9.20;3.00;;;;;;;5.80;78.86;102898.66;109010;1254;74337;-58
2024/01/28 02:06:27;;;;;;;11.30;3.20;;;;;;;5.79;78.77;102900.19;108981;1256;138801;-59
2024/01/28 02:08:54;;;;;;;10.80;3.10;;;;;;;5.81;78.84;102902.38;106591;1259;71380;-59
2024/01/28 02:11:22;;;;;;;9.90;3.10;;;;;;;5.83;78.73;102908.84;104801;1258;139217;-60
2024/01/28 02:13:49;;;;;;;12.10;3.30;;;;;;;5.83;78.71;102909.58;109003;1256;60860;-59
2024/01/28 02:16:16;;;;;;;11.80;3.30;;;;;;;5.82;78.69;102914.67;104954;1255;74682;-60
2024/01/28 02:18:42;;;;;;;14.40;3.40;;;;;;;5.81;78.65;102921.58;104816;1261;137768;-64
2024/01/28 02:21:09;;;;;;;9.60;3.30;;;;;;;5.80;78.60;102926.56;109053;1256;73709;-61
2024/01/28 02:23:36;;;;;;;11.60;3.10;;;;;;;5.77;78.57;102930.64;109001;1255;138079;-58
2024/01/28 02:26:02;;;;;;;11.00;3.50;;;;;;;5.75;78.67;102925.60;109193;1256;60441;-58
2024/01/28 02:28:29;;;;;;;9.70;3.20;;;;;;;5.75;78.62;102921.76;107352;1258;73555;-58
2024/01/28 02:30:56;;;;;;;11.40;3.30;;;;;;;5.72;78.69;102917.36;104914;1259;138196;-63
2024/01/28 02:33:23;;;;;;;14.60;3.00;;;;;;;5.75;78.75;102923.23;105036;1259;73337;-59
2024/01/28 02:35:49;;;;;;;13.90;3.60;;;;;;;5.76;78.76;102917.49;104883;1257;138540;-58
2024/01/28 02:38:16;;;;;;;9.10;3.00;;;;;;;5.76;78.70;102927.47;104907;1259;61254;-64
2024/01/28 02:40:43;;;;;;;11.80;3.30;;;;;;;5.76;78.72;102928.80;104875;1260;75386;-64
2024/01/28 02:43:10;;;;;;;8.90;2.90;;;;;;;5.76;78.78;102935.43;104838;1256;138687;-63
2024/01/28 02:45:36;;;;;;;11.90;3.30;;;;;;;5.76;78.82;102943.27;105395;1260;73581;-64
2024/01/28 02:48:04;;;;;;;11.80;3.20;;;;;;;5.76;78.87;102944.50;104853;1259;138592;-64
2024/01/28 02:50:30;;;;;;;13.30;3.50;;;;;;;5.76;78.86;102940.33;105123;1259;61665;-59
2024/01/28 02:52:57;;;;;;;20.30;3.90;;;;;;;5.76;78.92;102941.95;104960;1260;137913;-60
2024/01/28 02:55:24;;;;;;;12.80;3.70;;;;;;;5.76;78.90;102944.20;105044;1260;66421;-59
2024/01/28 02:57:51;;;;;;;13.60;3.70;;;;;;;5.74;78.80;102941.02;104978;1257;72405;-60
2024/01/28 03:00:18;;;;;;;11.90;3.70;;;;;;;5.72;78.91;102945.95;104795;1261;138217;-60
2024/01/28 03:02:47;;;;;;;13.70;3.80;;;;;;;5.72;79.03;102953.07;109100;1257;60678;-60
2024/01/28 03:05:14;;;;;;;17.00;4.00;;;;;;;5.71;78.99;102955.25;108871;1256;138430;-59
2024/01/28 03:07:41;;;;;;;15.50;3.80;;;;;;;5.70;79.05;102961.96;106640;1259;67363;-59
2024/01/28 03:10:08;;;;;;;10.60;3.90;;;;;;;5.71;79.07;102963.30;104956;1258;73724;-60
2024/01/28 03:12:35;;;;;;;14.90;4.00;;;;;;;5.72;79.15;102966.84;105037;1257;138648;-60
2024/01/28 03:15:03;;;;;;;18.20;5.00;;;;;;;5.74;79.14;102969.63;105029;1259;61227;-59
2024/01/28 03:17:30;;;;;;;15.80;4.30;;;;;;;5.75;79.23;102977.17;109131;1254;138596;-59
2024/01/28 03:19:56;;;;;;;11.90;4.10;;;;;;;5.77;79.27;102976.83;109210;1254;67262;-60
2024/01/28 03:22:23;;;;;;;18.40;4.50;;;;;;;5.79;79.27;102972.50;105969;1254;71910;-59
2024/01/28 03:24:51;;;;;;;20.30;4.70;;;;;;;5.83;79.31;102975.75;104900;1254;138571;-59
2024/01/28 03:27:18;;;;;;;17.10;4.90;;;;;;;5.85;79.38;102980.80;105001;1257;61261;-58
2024/01/28 03:29:45;;;;;;;24.20;5.30;;;;;;;5.87;79.32;102983.54;105075;1254;137778;-60
2024/01/28 03:32:11;;;;;;;15.90;4.50;;;;;;;5.88;79.26;102992.86;105131;1260;66674;-59
2024/01/28 03:34:38;;;;;;;21.20;5.80;;;;;;;5.87;79.22;102996.83;105085;1260;73086;-60
2024/01/28 03:37:05;;;;;;;15.20;4.40;;;;;;;5.87;79.41;102996.83;105549;1257;137641;-61
2024/01/28 03:39:31;;;;;;;21.00;5.10;;;;;;;5.88;79.31;103007.80;104958;1259;61269;-61
2024/01/28 03:41:58;;;;;;;17.10;4.50;;;;;;;5.86;79.38;103005.46;104948;1260;139005;-59
2024/01/28 03:44:25;;;;;;;19.10;4.60;;;;;;;5.87;79.38;103013.13;105019;1269;66615;-58
2024/01/28 03:46:53;;;;;;;19.90;4.50;;;;;;;5.85;79.35;103013.55;104890;1257;138430;-59
2024/01/28 03:49:20;;;;;;;20.60;5.10;;;;;;;5.85;79.34;103016.19;109067;1255;59004;-59
2024/01/28 03:51:47;;;;;;;18.00;4.60;;;;;;;5.85;79.43;103015.64;109045;1256;60036;-59
2024/01/28 03:54:14;;;;;;;26.80;5.40;;;;;;;5.85;79.41;103013.05;108970;1255;138569;-58
2024/01/28 03:56:40;;;;;;;15.20;4.40;;;;;;;5.87;79.46;103011.94;109052;1256;66985;-58
2024/01/28 03:59:07;;;;;;;19.40;4.70;;;;;;;5.87;79.46;103010.57;108889;1257;139192;-58
2024/01/28 04:01:34;;;;;;;18.20;4.20;;;;;;;5.89;79.44;103018.54;109014;1257;59647;-59
2024/01/28 04:04:01;;;;;;;21.90;4.80;;;;;;;5.92;79.52;103021.62;109117;1256;60281;-59
2024/01/28 04:06:27;;;;;;;21.50;4.10;;;;;;;5.95;79.50;103024.95;109049;1254;139884;-58
2024/01/28 04:08:57;;;;;;;21.70;4.60;;;;;;;5.98;79.45;103029.42;109211;1254;67388;-59
2024/01/28 04:11:25;;;;;;;21.60;4.20;;;;;;;6.00;79.48;103026.79;109073;1254;138684;-59
2024/01/28 04:13:55;;;;;;;15.30;3.90;;;;;;;6.02;79.45;103020.16;107513;1258;64973;-64
2024/01/28 04:16:22;;;;;;;22.30;4.20;;;;;;;6.03;79.38;103018.52;105172;1260;62577;-64
2024/01/28 04:18:49;;;;;;;14.80;4.30;;;;;;;6.03;79.40;103018.48;105032;1260;139512;-64
2024/01/28 04:21:16;;;;;;;18.70;5.40;;;;;;;6.02;79.47;103017.91;104913;1267;67473;-59
2024/01/28 04:23:43;;;;;;;22.00;4.70;;;;;;;6.01;79.47;103015.71;104825;1260;137778;-64
2024/01/28 04:26:11;;;;;;;17.00;4.60;;;;;;;6.01;79.60;103012.92;105160;1260;61292;-63
2024/01/28 04:28:38;;;;;;;19.80;4.40;;;;;;;5.99;79.62;103013.84;105001;1263;61359;-59
2024/01/28 04:31:05;;;;;;;20.20;5.10;;;;;;;5.97;79.76;103010.56;104863;1260;138107;-59
2024/01/28 04:33:31;;;;;;;23.50;4.80;;;;;;;5.94;79.67;103006.44;105054;1260;67304;-59
2024/01/28 04:35:58;;;;;;;16.80;4.20;;;;;;;5.92;79.69;103002.96;104958;1259;138782;-58
2024/01/28 04:38:25;;;;;;;15.50;4.60;;;;;;;5.91;79.80;103009.64;104914;1258;61263;-59
2024/01/28 04:40:51;;;;;;;21.90;4.80;;;;;;;5.91;79.84;103009.98;104720;1262;138775;-63
2024/01/28 04:43:18;;;;;;;22.70;4.50;;;;;;;5.90;79.86;103010.77;104968;1261;74274;-59
2024/01/28 04:45:45;;;;;;;16.30;4.20;;;;;;;5.90;79.98;103016.39;104985;1258;67469;-64
2024/01/28 04:48:12;;;;;;;14.60;3.40;;;;;;;5.92;80.04;103016.54;104981;1256;138751;-60
2024/01/28 04:50:38;;;;;;;19.40;4.10;;;;;;;5.92;79.99;103018.10;104942;1257;61429;-64
2024/01/28 04:53:05;;;;;;;15.30;3.90;;;;;;;5.92;80.05;103020.93;104817;1269;138350;-64
2024/01/28 04:55:32;;;;;;;17.50;4.20;;;;;;;5.91;80.04;103021.39;104846;1260;73805;-64
2024/01/28 04:57:58;;;;;;;21.50;4.30;;;;;;;5.92;80.06;103024.38;104935;1269;67347;-59
2024/01/28 05:00:25;;;;;;;22.70;5.20;;;;;;;5.92;80.12;103025.60;104896;1261;137924;-60
2024/01/28 05:02:55;;;;;;;19.20;5.50;;;;;;;5.93;80.22;103020.77;104915;1257;61214;-60
2024/01/28 05:05:22;;;;;;;24.20;4.70;;;;;;;5.91;80.20;103024.70;106724;1260;137683;-64
2024/01/28 05:07:49;;;;;;;15.30;4.20;;;;;;;5.90;80.16;103029.11;104911;1257;74429;-64
2024/01/28 05:10:16;;;;;;;22.00;4.30;;;;;;;5.89;80.21;103036.70;105052;1255;66532;-59
2024/01/28 05:12:45;;;;;;;17.20;4.10;;;;;;;5.88;80.18;103029.15;105254;1261;138579;-59
2024/01/28 05:15:16;;;;;;;22.10;4.50;;;;;;;5.89;80.23;103029.04;107383;1257;61278;-64
2024/01/28 05:17:44;;;;;;;15.10;4.00;;;;;;;5.89;80.16;103030.25;105580;1259;139499;-64
2024/01/28 05:20:11;;;;;;;17.70;3.90;;;;;;;5.90;80.24;103028.05;105075;1261;74028;-64
2024/01/28 05:22:38;;;;;;;14.40;3.40;;;;;;;5.89;80.06;103028.65;104931;1261;64473;-59
2024/01/28 05:25:05;;;;;;;12.60;3.50;;;;;;;5.86;79.98;103030.50;104750;1258;138478;-63
2024/01/28 05:27:33;;;;;;;15.20;3.10;;;;;;;5.84;79.95;103034.01;105061;1261;61247;-64
2024/01/28 05:29:59;;;;;;;13.50;2.90;;;;;;;5.81;79.89;103042.17;104940;1260;138650;-64
2024/01/28 05:32:26;;;;;;;12.80;3.00;;;;;;;5.78;79.89;103049.55;104831;1260;74406;-64
2024/01/28 05:34:54;;;;;;;12.20;3.10;;;;;;;5.77;79.80;103051.39;104780;1260;139000;-58
2024/01/28 05:37:22;;;;;;;9.50;1.80;;;;;;;5.78;79.79;103059.30;104858;1254;72319;-58
2024/01/28 05:39:48;;;;;;;6.60;1.80;;;;;;;5.75;79.60;103065.19;104986;1255;61420;-59
2024/01/28 05:42:15;;;;;;;5.70;1.70;;;;;;;5.72;79.51;103064.42;104894;1261;137798;-60
2024/01/28 05:44:42;;;;;;;7.80;1.80;;;;;;;5.70;79.52;103068.21;105035;1254;74930;-60
2024/01/28 05:47:09;;;;;;;7.60;2.70;;;;;;;5.67;79.55;103068.55;104966;1259;138426;-59
2024/01/28 05:49:36;;;;;;;4.70;1.80;;;;;;;5.65;79.52;103070.84;105078;1260;73716;-59
2024/01/28 05:52:03;;;;;;;7.50;2.30;;;;;;;5.65;79.51;103076.21;109089;1256;59909;-59
2024/01/28 05:54:30;;;;;;;6.60;2.10;;;;;;;5.64;79.61;103076.02;109101;1254;138334;-59
2024/01/28 05:56:57;;;;;;;10.30;2.20;;;;;;;5.66;79.47;103081.89;109190;1254;73857;-58
2024/01/28 05:59:23;;;;;;;9.70;2.60;;;;;;;5.67;79.45;103084.75;108798;1257;138893;-58
2024/01/28 06:01:50;;;;;;;8.10;2.70;;;;;;;5.68;79.46;103084.61;108522;1256;73967;-65
2024/01/28 06:04:17;;;;;;;4.90;1.90;;;;;;;5.72;79.46;103089.54;104997;1260;61429;-67
2024/01/28 06:06:43;;;;;;;9.20;2.20;;;;;;;5.74;79.45;103090.52;104864;1260;138257;-65
2024/01/28 06:09:10;;;;;;;8.80;2.00;;;;;;;5.76;79.50;103085.67;105090;1257;75811;-64
2024/01/28 06:11:37;;;;;;;7.90;2.50;;;;;;;5.78;79.46;103082.11;104900;1260;138569;-64
2024/01/28 06:14:04;;;;;;;9.50;3.00;;;;;;;5.78;79.47;103080.63;104943;1257;73640;-65
2024/01/28 06:16:30;;;;;;;7.80;2.90;;;;;;;5.78;79.45;103083.56;104980;1255;61359;-60
2024/01/28 06:18:57;;;;;;;7.60;3.00;;;;;;;5.78;79.40;103088.78;105029;1254;137354;-61
2024/01/28 06:21:24;;;;;;;11.10;3.10;;;;;;;5.78;79.49;103088.23;105082;1260;75509;-58
2024/01/28 06:23:51;;;;;;;8.10;2.50;;;;;;;5.79;79.46;103092.70;104858;1260;137687;-59
2024/01/28 06:26:18;;;;;;;13.40;3.40;;;;;;;5.78;79.38;103091.05;104938;1260;73754;-61
2024/01/28 06:28:45;;;;;;;10.60;3.20;;;;;;;5.77;79.38;103098.92;104860;1261;61381;-59
2024/01/28 06:31:13;;;;;;;8.50;2.50;;;;;;;5.75;79.43;103096.73;109178;1254;60338;-59
2024/01/28 06:33:43;;;;;;;9.90;3.00;;;;;;;5.75;79.49;103096.56;105716;1261;72613;-59
2024/01/28 06:36:18;;;;;;;11.60;3.80;;;;;;;5.76;79.48;103095.77;104938;1261;138301;-60
2024/01/28 06:38:44;;;;;;;11.30;3.30;;;;;;;5.79;79.47;103099.65;104981;1255;72301;-60
2024/01/28 06:41:12;;;;;;;11.10;3.90;;;;;;;5.80;79.49;103100.27;104637;1259;140017;-61
2024/01/28 06:43:39;;;;;;;12.40;3.30;;;;;;;5.81;79.39;103099.98;105019;1258;61394;-60
2024/01/28 06:46:05;;;;;;;12.00;3.60;;;;;;;5.82;79.45;103099.23;105081;1258;75275;-59
2024/01/28 06:48:32;;;;;;;9.70;2.90;;;;;;;5.84;79.49;103100.95;104907;1259;138514;-59
2024/01/28 06:50:59;;;;;;;10.60;3.00;;;;;;;5.84;79.41;103098.03;104925;1259;73651;-59
2024/01/28 06:53:25;;;;;;;8.60;3.10;;;;;;;5.84;79.35;103097.65;104881;1259;137767;-59
2024/01/28 06:55:52;;;;;;;8.90;3.30;;;;;;;5.83;79.39;103096.00;104939;1260;61157;-59
2024/01/28 06:58:19;;;;;;;10.70;3.50;;;;;;;5.83;79.36;103097.91;104772;1254;75270;-59
2024/01/28 07:00:46;;;;;;;17.40;3.50;;;;;;;5.83;79.41;103101.02;104905;1260;137524;-59
2024/01/28 07:03:12;;;;;;;10.60;3.20;;;;;;;5.82;79.35;103103.05;104794;1260;80960;-60
2024/01/28 07:05:39;;;;;;;6.50;2.80;;;;;;;5.82;79.40;103102.69;104905;1260;138676;-59
2024/01/28 07:08:07;;;;;;;8.00;2.50;;;;;;;5.82;79.30;103106.20;105101;1254;61246;-59
2024/01/28 07:10:34;;;;;;;8.10;2.60;;;;;;;5.84;79.40;103106.15;109174;1254;75722;-59
2024/01/28 07:13:03;;;;;;;10.00;3.00;;;;;;;5.85;79.43;103104.67;108972;1257;138428;-59
2024/01/28 07:15:30;;;;;;;13.00;2.80;;;;;;;5.87;79.40;103107.79;109094;1257;73741;-60
2024/01/28 07:17:57;;;;;;;7.80;2.90;;;;;;;5.89;79.28;103112.98;108928;1257;138794;-59
2024/01/28 07:20:23;;;;;;;11.70;3.30;;;;;;;5.91;79.28;103121.00;106601;1257;61132;-59
2024/01/28 07:22:50;;;;;;;9.40;2.60;;;;;;;5.94;79.39;103115.02;104637;1257;138945;-60
2024/01/28 07:25:17;;;;;;;11.40;3.00;;;;;;;5.98;79.35;103116.42;104893;1257;66617;-60
2024/01/28 07:27:44;;;;;;;13.20;2.60;;;;;;;6.03;79.38;103112.09;104975;1261;73343;-59
2024/01/28 07:30:11;;;;;;;11.80;2.60;;;;;;;6.03;79.30;103119.45;104747;1257;138475;-59
2024/01/28 07:32:37;;;;;;;8.80;2.80;;;;;;;6.03;79.28;103124.34;109008;1257;60456;-60
2024/01/28 07:35:05;;;;;;;7.70;2.70;;;;;;;6.05;79.32;103124.24;108973;1254;137938;-60
2024/01/28 07:37:31;;;;;;;10.90;2.40;;;;;;;6.03;79.16;103124.30;109179;1254;66541;-59
2024/01/28 07:39:58;;;;;;;8.80;2.40;;;;;;;6.01;79.13;103120.34;109173;1254;71283;-64
2024/01/28 07:42:25;;;;;;;8.20;2.20;;;;;;;6.04;79.15;103125.06;107605;1254;137471;-65
2024/01/28 07:44:51;;;;;;;7.10;2.10;;;;;;;6.07;79.13;103122.64;105055;1259;61282;-65
2024/01/28 07:47:18;;;;;;;8.90;2.30;;;;;;;6.08;79.01;103131.50;104934;1254;138402;-64
2024/01/28 07:49:44;;;;;;;7.70;2.20;;;;;;;6.10;78.98;103139.31;105048;1254;64302;-65
2024/01/28 07:52:11;;;;;;;10.30;2.40;;;;;;;6.12;78.99;103145.95;104972;1258;70991;-64
2024/01/28 07:54:38;;;;;;;7.90;2.40;;;;;;;6.13;79.01;103148.33;105408;1258;138550;-64
2024/01/28 07:57:05;;;;;;;8.40;3.00;;;;;;;6.15;78.87;103150.52;104966;1254;61141;-65
2024/01/28 07:59:31;;;;;;;8.80;3.10;;;;;;;6.15;78.76;103151.79;104978;1254;138234;-64
2024/01/28 08:01:58;;;;;;;10.00;3.10;;;;;;;6.16;78.72;103154.85;105178;1259;67310;-65
2024/01/28 08:04:25;;;;;;;6.90;2.80;;;;;;;6.19;78.75;103157.53;105005;1254;72856;-65
2024/01/28 08:06:52;;;;;;;6.40;2.40;;;;;;;6.22;78.73;103160.05;104939;1257;137684;-65
2024/01/28 08:09:18;;;;;;;11.40;2.40;;;;;;;6.25;78.68;103156.10;105077;1259;61498;-63
2024/01/28 08:11:45;;;;;;;6.40;2.10;;;;;;;6.29;78.73;103156.19;104917;1260;137744;-65
2024/01/28 08:14:12;;;;;;;7.10;2.00;;;;;;;6.30;78.62;103157.02;104826;1260;67384;-66
2024/01/28 08:16:38;;;;;;;8.10;2.40;;;;;;;6.32;78.67;103154.52;104701;1269;71767;-65
2024/01/28 08:19:05;;;;;;;5.60;2.40;;;;;;;6.34;78.56;103151.38;105024;1259;138496;-65
2024/01/28 08:21:32;;;;;;;6.60;2.40;;;;;;;6.36;78.48;103153.80;104971;1260;61239;-66
2024/01/28 08:23:58;;;;;;;10.90;2.90;;;;;;;6.39;78.44;103155.42;104672;1263;138429;-65
2024/01/28 08:26:25;;;;;;;8.20;2.80;;;;;;;6.42;78.36;103150.45;104955;1260;67028;-65
2024/01/28 08:28:52;;;;;;;9.70;2.40;;;;;;;6.46;78.44;103157.89;104742;1254;139538;-64
2024/01/28 08:31:19;;;;;;;10.80;2.80;;;;;;;6.52;78.40;103158.37;105036;1258;61296;-65
2024/01/28 08:33:45;;;;;;;10.30;2.50;;;;;;;6.58;78.20;103163.60;104997;1257;61327;-64
2024/01/28 08:36:12;;;;;;;6.40;2.00;;;;;;;6.61;78.14;103163.85;104777;1259;138776;-66
2024/01/28 08:38:39;;;;;;;8.10;2.60;;;;;;;6.69;78.12;103165.35;105009;1256;64278;-65
2024/01/28 08:41:07;;;;;;;7.40;2.50;;;;;;;6.76;78.11;103168.04;106365;1256;137894;-64
2024/01/28 08:43:35;;;;;;;8.60;2.40;;;;;;;6.86;78.04;103169.33;105045;1254;61162;-66
2024/01/28 08:46:03;;;;;;;10.80;2.80;;;;;;;6.95;77.98;103171.58;105048;1258;61566;-64
2024/01/28 08:48:30;;;;;;;9.00;2.50;;;;;;;6.99;77.75;103174.33;104865;1260;138105;-64
2024/01/28 08:50:57;;;;;;;9.80;2.70;;;;;;;7.03;77.65;103182.65;105068;1255;67240;-65
2024/01/28 08:53:24;;;;;;;9.80;2.90;;;;;;;7.08;77.56;103185.31;104976;1259;139120;-60
2024/01/28 08:55:51;;;;;;;9.50;2.80;;;;;;;7.12;77.50;103185.33;104979;1257;61304;-64
2024/01/28 08:58:17;;;;;;;7.00;2.80;;;;;;;7.18;77.46;103186.65;105052;1254;61423;-65
2024/01/28 09:00:44;;;;;;;7.30;2.90;;;;;;;7.24;77.36;103183.59;104877;1254;138948;-60
2024/01/28 09:03:11;;;;;;;11.50;3.30;;;;;;;7.30;77.29;103183.23;104760;1261;66159;-59
2024/01/28 09:05:38;;;;;;;7.20;2.60;;;;;;;7.36;77.14;103185.09;104902;1254;138151;-65
2024/01/28 09:08:04;;;;;;;9.80;2.90;;;;;;;7.42;76.88;103187.60;105105;1259;61277;-64
2024/01/28 09:10:31;;;;;;;11.40;3.00;;;;;;;7.43;76.75;103189.62;105018;1260;61286;-64
2024/01/28 09:12:58;;;;;;;4.60;1.90;;;;;;;7.51;76.79;103192.35;108037;1260;138450;-64
2024/01/28 09:15:25;;;;;;;7.90;2.50;;;;;;;7.57;76.56;103195.81;104655;1257;66386;-65
2024/01/28 09:17:52;;;;;;;12.60;3.20;;;;;;;7.63;76.44;103202.84;105403;1257;140405;-65
2024/01/28 09:20:19;;;;;;;8.90;3.40;;;;;;;7.73;76.29;103202.70;104896;1258;61441;-59
2024/01/28 09:22:45;;;;;;;8.60;2.90;;;;;;;7.79;76.21;103200.72;104807;1257;137701;-60
2024/01/28 09:25:12;;;;;;;7.30;2.40;;;;;;;7.84;75.96;103201.31;104954;1259;163435;-66
2024/01/28 09:27:39;;;;;;;7.40;2.70;;;;;;;7.92;75.85;103207.83;104831;1259;66497;-59
2024/01/28 09:30:06;;;;;;;5.50;2.30;;;;;;;8.02;75.71;103207.50;104788;1261;137675;-60
2024/01/28 09:32:33;;;;;;;9.30;2.80;;;;;;;8.09;75.57;103213.15;104908;1261;61343;-58
2024/01/28 09:34:59;;;;;;;10.80;2.30;;;;;;;8.13;75.32;103216.21;104777;1257;137730;-61
2024/01/28 09:37:26;;;;;;;9.80;3.00;;;;;;;8.13;75.07;103220.79;104864;1257;75647;-60
2024/01/28 09:39:53;;;;;;;6.30;2.30;;;;;;;8.11;74.98;103226.25;104972;1259;66788;-64
2024/01/28 09:42:24;;;;;;;10.30;2.90;;;;;;;8.08;74.72;103230.69;104781;1257;138515;-65
2024/01/28 09:44:51;;;;;;;10.90;2.80;;;;;;;8.04;74.66;103230.88;109075;1256;59065;-65
2024/01/28 09:47:18;;;;;;;9.70;3.50;;;;;;;8.06;74.79;103226.00;107970;1255;138029;-65
2024/01/28 09:49:46;;;;;;;10.70;3.10;;;;;;;8.14;74.91;103222.93;105043;1258;75137;-65
2024/01/28 09:52:16;;;;;;;11.70;3.20;;;;;;;8.22;74.67;103222.30;108471;1256;67259;-65
2024/01/28 09:54:45;;;;;;;9.30;2.70;;;;;;;8.25;74.50;103225.88;104771;1260;137824;-65
2024/01/28 09:57:12;;;;;;;8.10;3.30;;;;;;;8.29;74.40;103230.19;108971;1255;59267;-59
2024/01/28 09:59:38;;;;;;;10.20;3.30;;;;;;;8.32;74.25;103234.82;108969;1255;137693;-59
2024/01/28 10:02:05;;;;;;;11.80;2.90;;;;;;;8.36;74.17;103237.14;108969;1256;74274;-64
2024/01/28 10:04:32;;;;;;;12.50;3.00;;;;;;;8.39;74.02;103238.23;105818;1258;65769;-65
2024/01/28 10:07:02;;;;;;;8.20;2.50;;;;;;;8.44;74.00;103241.45;108897;1256;138375;-60
2024/01/28 10:09:29;;;;;;;10.10;2.70;;;;;;;8.52;73.95;103243.40;109124;1255;59021;-60
2024/01/28 10:12:00;;;;;;;9.30;2.80;;;;;;;8.58;73.87;103233.71;108849;1256;138671;-60
2024/01/28 10:14:27;;;;;;;12.00;3.70;;;;;;;8.63;73.78;103236.73;108968;1257;73364;-61
2024/01/28 10:16:54;;;;;;;14.50;3.60;;;;;;;8.68;73.64;103234.64;105371;1258;139282;-60
2024/01/28 10:19:21;;;;;;;11.60;3.00;;;;;;;8.66;73.37;103232.88;105062;1256;73493;-60
2024/01/28 10:21:48;;;;;;;9.40;3.10;;;;;;;8.60;73.17;103235.23;104787;1258;61349;-66
2024/01/28 10:24:19;;;;;;;7.80;2.80;;;;;;;8.55;73.13;103235.29;104936;1259;137508;-65
2024/01/28 10:26:45;;;;;;;8.90;3.70;;;;;;;8.52;73.13;103228.72;104905;1255;76170;-65
2024/01/28 10:29:13;;;;;;;7.00;2.70;;;;;;;8.49;73.06;103227.08;104838;1259;140539;-58
2024/01/28 10:31:40;;;;;;;8.10;3.20;;;;;;;8.48;72.92;103217.21;105027;1257;72260;-59
2024/01/28 10:34:08;;;;;;;9.10;3.20;;;;;;;8.47;72.90;103219.10;105007;1259;61295;-61
2024/01/28 10:36:36;;;;;;;9.00;2.90;;;;;;;8.49;73.02;103223.58;104907;1258;137653;-60
2024/01/28 10:39:04;;;;;;;10.90;3.40;;;;;;;8.54;73.08;103228.17;105169;1256;75632;-61
2024/01/28 10:41:33;;;;;;;10.10;3.00;;;;;;;8.52;72.78;103223.69;104885;1257;138640;-60
2024/01/28 10:44:07;;;;;;;9.60;2.80;;;;;;;8.45;72.59;103218.25;105031;1260;73514;-59
2024/01/28 10:46:38;;;;;;;15.20;3.30;;;;;;;8.36;72.64;103216.03;105333;1257;61175;-65
2024/01/28 10:49:09;;;;;;;10.30;2.80;;;;;;;8.32;72.64;103215.73;104879;1259;137780;-64
2024/01/28 10:51:39;;;;;;;14.40;3.70;;;;;;;8.28;72.71;103220.16;106081;1256;74106;-59
2024/01/28 10:54:09;;;;;;;12.10;3.90;;;;;;;8.27;72.75;103223.69;105299;1256;138012;-66
2024/01/28 10:56:37;;;;;;;10.90;4.10;;;;;;;8.23;72.76;103225.52;108987;1256;74613;-64
2024/01/28 10:59:04;;;;;;;15.10;3.70;;;;;;;8.24;72.92;103222.43;106235;1259;138665;-65
2024/01/28 11:01:31;;;;;;;9.60;3.90;;;;;;;8.25;72.98;103214.48;105069;1256;61244;-59
2024/01/28 11:03:58;;;;;;;15.00;4.50;;;;;;;8.25;72.97;103211.34;104963;1256;74262;-59
2024/01/28 11:06:26;;;;;;;6.70;3.30;;;;;;;8.26;72.92;103219.42;104854;1257;138174;-60
2024/01/28 11:08:55;;;;;;;9.50;4.20;;;;;;;8.19;72.70;103218.60;104783;1256;73661;-60
2024/01/28 11:11:22;;;;;;;8.60;3.20;;;;;;;8.07;72.73;103220.88;106579;1259;139117;-60
2024/01/28 11:13:51;;;;;;;13.40;3.90;;;;;;;8.06;72.86;103219.88;105084;1256;61330;-65
2024/01/28 11:16:19;;;;;;;11.10;3.50;;;;;;;8.05;72.82;103218.73;105221;1254;74678;-64